Atlantic - Newfoundland: Past 24 Hour Conditions

 

Charlottetown Airport

08:00 PM ADT 16 April 2014
This table is a summary of hourly weather conditions for the past 24 hours.
Date / Time
(ADT)
Wind(knots) Conditions Visibility(km) Pressure(kPa) Air tempC) Relative humidity(%) Dew pointC) Wind Chill
16 April 2014
20:00 NNW 7 Mainly Sunny 24 102.7 0 67 -6 -4
19:00 WNW 8 gust 18 Partly Cloudy 24 102.5 1 66 -5 *
18:00 W 11 gust 18 Partly Cloudy 24 102.3 2 64 -5 *
17:00 WNW 15 gust 21 Mostly Cloudy 24 102.1 2 68 -4 *
16:00 WNW 15 gust 26 Mostly Cloudy 24 101.9 2 74 -2 *
15:00 WNW 10 gust 20 Light Snowshower 19 101.7 2 89 1 *
14:00 W 14 gust 21 Light Rainshower 16 101.5 2 90 0 *
13:00 W 13 gust 25 Light Rainshower 16 101.2 3 90 1 *
12:00 W 9 Light Rainshower 16 101.0 5 95 4 *
11:00 WNW 11 gust 18 Light Rainshower 16 100.8 6 94 5 *
10:00 WNW 11 gust 19 Light Rainshower 5 100.6 9 95 9 *
9:00 SSW 14 gust 21 Light Rainshower 3 100.4 12 98 12 *
8:00 S 26 gust 36 Light Rainshower 8 100.4 11 97 11 *
7:00 S 29 gust 39 Light Rainshower 8 100.4 12 97 12 *
6:00 S 27 gust 35 Light Rain 8 100.4 11 99 11 *
5:00 S 19 gust 25 Mist 2 100.6 9 99 9 *
4:00 S 19 gust 27 Mist 10 100.6 11 97 10 *
3:00 SSE 22 gust 29 Mist 10 100.7 11 98 11 *
2:00 S 23 gust 30 Light Rainshower 6 100.8 12 98 11 *
1:00 S 24 gust 33 Light Rainshower 3 100.9 13 97 12 *
0:00 S 18 gust 28 Mist 8 100.9 13 95 12 *
15 April 2014
23:00 S 20 Mist 3 101.0 11 97 10 *
22:00 S 17 Mist 8 101.1 11 96 11 *
21:00 S 24 gust 31 Mostly Cloudy 24 101.1 13 87 10 *
20:00 S 24 gust 34 Partly Cloudy 24 101.1 15 81 12 *
 
Map of Atlantic - Newfoundland marine weather areas Southwestern Grand Banks - 44138 Banquereau - 44139 Tail of the Bank - 44140 Nickerson Bank - 44251 Northeast Burgeo Bank - 44255 Blanc-Sablon Airport Cap Whittle Chevery Natashquan Airport Heath Point Miscou Island Grand Étang Ingonish Beach North Mountain St.Paul Island J.A. Douglas McCurdy Sydney Airport Charlottetown Airport East Point North Cape Argentia Bonavista Burgeo Cape Race Corner Brook Daniel's Harbour Englee Ferolle Point La Scie Port aux Basques Rocky Harbour Sagona Island St. Anthony Airport St. John's Int'l Airport St. Lawrence Stephenville Airport Twillingate Winterland Wreckhouse Cartwright Airport Mary's Harbour Grates Cove Pool's Island Marticot Island Long Pond Îles de la Madeleine Airport
Legend: buoyBuoy land stationLand Station